Terminal Aerodrome Forecast
Issued by NWS

Home | Current Version | Previous Version | Text Only | Print | Product List | Glossary On
Versions: 1 2 3 4 5 6 7 8 9 10 11 12 13 14 15 16 17 18 19 20 21 22 23 24 25 26 27 28 29 30 31 32 33 34 35 36 37 38
000
FTAK31 PANC 221137
TAFASD
TAF
PASD 221137Z 2212/2312 32005KT P6SM SKC
     FM221600 12008KT P6SM BKN050
     FM222100 12012G20KT P6SM BKN040
     FM230100 13020G30KT 4SM -SN OVC018
     FM230400 13025G40KT 1SM -SN BLSN OVC012
      AMD LTD TO CLD VIS AND WIND=

USA.gov is the U.S. government's official web portal to all federal, state and local government web resources and services.